sensor_id;sensor_type;location;lat;lon;timestamp;P1;durP1;ratioP1;P2;durP2;ratioP2
3571;SDS011;7958;53.024;12.970;2023-11-21T00:00:36;7.93;;;4.80;;
3571;SDS011;7958;53.024;12.970;2023-11-21T00:03:03;7.10;;;4.73;;
3571;SDS011;7958;53.024;12.970;2023-11-21T00:05:30;5.80;;;4.57;;
3571;SDS011;7958;53.024;12.970;2023-11-21T00:07:56;8.10;;;5.27;;
3571;SDS011;7958;53.024;12.970;2023-11-21T00:10:24;5.70;;;4.93;;
3571;SDS011;7958;53.024;12.970;2023-11-21T00:12:50;8.07;;;5.40;;
3571;SDS011;7958;53.024;12.970;2023-11-21T00:15:20;7.70;;;5.10;;
3571;SDS011;7958;53.024;12.970;2023-11-21T00:17:46;5.30;;;4.80;;
3571;SDS011;7958;53.024;12.970;2023-11-21T00:20:13;9.33;;;5.70;;
3571;SDS011;7958;53.024;12.970;2023-11-21T00:22:39;9.10;;;5.23;;
3571;SDS011;7958;53.024;12.970;2023-11-21T00:25:06;7.90;;;6.00;;
3571;SDS011;7958;53.024;12.970;2023-11-21T00:27:35;9.17;;;5.40;;
3571;SDS011;7958;53.024;12.970;2023-11-21T00:30:01;6.37;;;5.70;;
3571;SDS011;7958;53.024;12.970;2023-11-21T00:32:30;10.73;;;6.30;;
3571;SDS011;7958;53.024;12.970;2023-11-21T00:34:57;7.10;;;5.63;;
3571;SDS011;7958;53.024;12.970;2023-11-21T00:37:24;7.33;;;6.10;;
3571;SDS011;7958;53.024;12.970;2023-11-21T00:39:50;6.43;;;5.47;;
3571;SDS011;7958;53.024;12.970;2023-11-21T00:42:17;7.93;;;6.40;;
3571;SDS011;7958;53.024;12.970;2023-11-21T00:44:44;7.63;;;6.03;;
3571;SDS011;7958;53.024;12.970;2023-11-21T00:47:11;7.70;;;6.27;;
3571;SDS011;7958;53.024;12.970;2023-11-21T00:49:37;7.80;;;6.40;;
3571;SDS011;7958;53.024;12.970;2023-11-21T00:52:04;9.30;;;6.17;;
3571;SDS011;7958;53.024;12.970;2023-11-21T00:54:30;10.60;;;7.13;;
3571;SDS011;7958;53.024;12.970;2023-11-21T00:56:57;9.00;;;6.47;;
3571;SDS011;7958;53.024;12.970;2023-11-21T00:59:23;9.40;;;6.37;;
3571;SDS011;7958;53.024;12.970;2023-11-21T01:01:51;8.10;;;5.67;;
3571;SDS011;7958;53.024;12.970;2023-11-21T01:04:19;7.87;;;6.23;;
3571;SDS011;7958;53.024;12.970;2023-11-21T01:06:45;9.73;;;6.47;;
3571;SDS011;7958;53.024;12.970;2023-11-21T01:09:12;8.87;;;6.10;;
3571;SDS011;7958;53.024;12.970;2023-11-21T01:11:38;7.60;;;5.27;;
3571;SDS011;7958;53.024;12.970;2023-11-21T01:14:04;7.43;;;6.07;;
3571;SDS011;7958;53.024;12.970;2023-11-21T01:16:31;7.17;;;6.03;;
3571;SDS011;7958;53.024;12.970;2023-11-21T01:18:59;10.27;;;6.17;;
3571;SDS011;7958;53.024;12.970;2023-11-21T01:21:26;7.37;;;6.00;;
3571;SDS011;7958;53.024;12.970;2023-11-21T01:23:53;8.63;;;6.70;;
3571;SDS011;7958;53.024;12.970;2023-11-21T01:26:19;10.17;;;6.60;;
3571;SDS011;7958;53.024;12.970;2023-11-21T01:28:46;11.23;;;6.80;;
3571;SDS011;7958;53.024;12.970;2023-11-21T01:31:13;8.87;;;5.97;;
3571;SDS011;7958;53.024;12.970;2023-11-21T01:33:40;8.67;;;6.50;;
3571;SDS011;7958;53.024;12.970;2023-11-21T01:36:08;9.00;;;5.70;;
3571;SDS011;7958;53.024;12.970;2023-11-21T01:38:35;8.07;;;6.17;;
3571;SDS011;7958;53.024;12.970;2023-11-21T01:41:02;8.60;;;6.70;;
3571;SDS011;7958;53.024;12.970;2023-11-21T01:43:28;9.13;;;5.80;;
3571;SDS011;7958;53.024;12.970;2023-11-21T01:45:56;9.87;;;6.87;;
3571;SDS011;7958;53.024;12.970;2023-11-21T01:48:24;9.20;;;6.40;;
3571;SDS011;7958;53.024;12.970;2023-11-21T01:50:50;10.20;;;7.10;;
3571;SDS011;7958;53.024;12.970;2023-11-21T01:53:19;10.20;;;7.10;;
3571;SDS011;7958;53.024;12.970;2023-11-21T01:55:45;10.77;;;6.80;;
3571;SDS011;7958;53.024;12.970;2023-11-21T01:58:12;10.27;;;6.77;;
3571;SDS011;7958;53.024;12.970;2023-11-21T02:00:39;11.07;;;7.30;;
3571;SDS011;7958;53.024;12.970;2023-11-21T02:03:05;8.70;;;6.17;;
3571;SDS011;7958;53.024;12.970;2023-11-21T02:05:32;9.60;;;6.70;;
3571;SDS011;7958;53.024;12.970;2023-11-21T02:07:59;9.50;;;7.03;;
3571;SDS011;7958;53.024;12.970;2023-11-21T02:10:27;9.43;;;6.93;;
3571;SDS011;7958;53.024;12.970;2023-11-21T02:12:54;11.03;;;6.30;;
3571;SDS011;7958;53.024;12.970;2023-11-21T02:15:21;7.57;;;6.10;;
3571;SDS011;7958;53.024;12.970;2023-11-21T02:17:51;8.63;;;6.17;;
3571;SDS011;7958;53.024;12.970;2023-11-21T02:20:18;8.20;;;6.00;;
3571;SDS011;7958;53.024;12.970;2023-11-21T02:22:49;8.17;;;6.50;;
3571;SDS011;7958;53.024;12.970;2023-11-21T02:25:18;9.57;;;6.47;;
3571;SDS011;7958;53.024;12.970;2023-11-21T02:27:44;8.10;;;6.10;;
3571;SDS011;7958;53.024;12.970;2023-11-21T02:30:13;7.67;;;5.97;;
3571;SDS011;7958;53.024;12.970;2023-11-21T02:32:41;9.30;;;5.97;;
3571;SDS011;7958;53.024;12.970;2023-11-21T02:35:08;7.77;;;5.80;;
3571;SDS011;7958;53.024;12.970;2023-11-21T02:37:34;13.57;;;6.40;;
3571;SDS011;7958;53.024;12.970;2023-11-21T02:40:02;7.60;;;6.00;;
3571;SDS011;7958;53.024;12.970;2023-11-21T02:42:31;10.53;;;6.90;;
3571;SDS011;7958;53.024;12.970;2023-11-21T02:44:57;10.07;;;6.10;;
3571;SDS011;7958;53.024;12.970;2023-11-21T02:47:24;9.67;;;7.37;;
3571;SDS011;7958;53.024;12.970;2023-11-21T02:49:50;8.07;;;6.53;;
3571;SDS011;7958;53.024;12.970;2023-11-21T02:52:17;9.47;;;6.80;;
3571;SDS011;7958;53.024;12.970;2023-11-21T02:54:44;11.03;;;7.40;;
3571;SDS011;7958;53.024;12.970;2023-11-21T02:57:11;9.20;;;7.20;;
3571;SDS011;7958;53.024;12.970;2023-11-21T02:59:38;9.87;;;7.60;;
3571;SDS011;7958;53.024;12.970;2023-11-21T03:02:04;14.93;;;7.07;;
3571;SDS011;7958;53.024;12.970;2023-11-21T03:04:33;10.30;;;8.00;;
3571;SDS011;7958;53.024;12.970;2023-11-21T03:06:59;10.90;;;6.90;;
3571;SDS011;7958;53.024;12.970;2023-11-21T03:09:26;9.53;;;6.97;;
3571;SDS011;7958;53.024;12.970;2023-11-21T03:11:53;10.50;;;7.50;;
3571;SDS011;7958;53.024;12.970;2023-11-21T03:14:21;11.43;;;6.57;;
3571;SDS011;7958;53.024;12.970;2023-11-21T03:16:47;13.30;;;7.20;;
3571;SDS011;7958;53.024;12.970;2023-11-21T03:19:14;7.73;;;5.80;;
3571;SDS011;7958;53.024;12.970;2023-11-21T03:21:42;9.37;;;6.53;;
3571;SDS011;7958;53.024;12.970;2023-11-21T03:24:08;8.77;;;7.00;;
3571;SDS011;7958;53.024;12.970;2023-11-21T03:26:34;9.07;;;7.10;;
3571;SDS011;7958;53.024;12.970;2023-11-21T03:29:02;9.00;;;6.70;;
3571;SDS011;7958;53.024;12.970;2023-11-21T03:31:31;12.10;;;7.23;;
3571;SDS011;7958;53.024;12.970;2023-11-21T03:33:57;9.20;;;6.97;;
3571;SDS011;7958;53.024;12.970;2023-11-21T03:36:23;9.20;;;6.80;;
3571;SDS011;7958;53.024;12.970;2023-11-21T03:38:50;9.20;;;6.47;;
3571;SDS011;7958;53.024;12.970;2023-11-21T03:41:17;9.47;;;6.63;;
3571;SDS011;7958;53.024;12.970;2023-11-21T03:43:43;10.50;;;6.90;;
3571;SDS011;7958;53.024;12.970;2023-11-21T03:46:10;11.20;;;7.00;;
3571;SDS011;7958;53.024;12.970;2023-11-21T03:48:38;9.60;;;6.13;;
3571;SDS011;7958;53.024;12.970;2023-11-21T03:51:05;10.30;;;7.20;;
3571;SDS011;7958;53.024;12.970;2023-11-21T03:53:31;7.40;;;6.17;;
3571;SDS011;7958;53.024;12.970;2023-11-21T03:55:58;9.47;;;6.80;;
3571;SDS011;7958;53.024;12.970;2023-11-21T03:58:26;7.27;;;6.43;;
3571;SDS011;7958;53.024;12.970;2023-11-21T04:00:52;8.93;;;7.00;;
3571;SDS011;7958;53.024;12.970;2023-11-21T04:03:19;7.60;;;5.90;;
3571;SDS011;7958;53.024;12.970;2023-11-21T04:05:46;7.87;;;6.00;;
3571;SDS011;7958;53.024;12.970;2023-11-21T04:08:13;8.37;;;6.20;;
3571;SDS011;7958;53.024;12.970;2023-11-21T04:10:39;9.43;;;6.57;;
3571;SDS011;7958;53.024;12.970;2023-11-21T04:13:07;11.17;;;6.40;;
3571;SDS011;7958;53.024;12.970;2023-11-21T04:15:33;10.83;;;6.37;;
3571;SDS011;7958;53.024;12.970;2023-11-21T04:17:59;8.30;;;6.07;;
3571;SDS011;7958;53.024;12.970;2023-11-21T04:20:26;9.53;;;6.73;;
3571;SDS011;7958;53.024;12.970;2023-11-21T04:22:55;8.20;;;5.60;;
3571;SDS011;7958;53.024;12.970;2023-11-21T04:25:22;8.77;;;6.00;;
3571;SDS011;7958;53.024;12.970;2023-11-21T04:27:48;10.70;;;6.03;;
3571;SDS011;7958;53.024;12.970;2023-11-21T04:30:14;9.40;;;6.27;;
3571;SDS011;7958;53.024;12.970;2023-11-21T04:32:41;8.63;;;6.30;;
3571;SDS011;7958;53.024;12.970;2023-11-21T04:35:08;8.93;;;6.50;;
3571;SDS011;7958;53.024;12.970;2023-11-21T04:37:34;11.63;;;6.47;;
3571;SDS011;7958;53.024;12.970;2023-11-21T04:40:02;9.53;;;5.73;;
3571;SDS011;7958;53.024;12.970;2023-11-21T04:42:32;10.87;;;7.33;;
3571;SDS011;7958;53.024;12.970;2023-11-21T04:44:59;9.43;;;6.73;;
3571;SDS011;7958;53.024;12.970;2023-11-21T04:47:26;9.30;;;6.50;;
3571;SDS011;7958;53.024;12.970;2023-11-21T04:49:52;8.53;;;6.60;;
3571;SDS011;7958;53.024;12.970;2023-11-21T04:52:19;6.47;;;5.50;;
3571;SDS011;7958;53.024;12.970;2023-11-21T04:54:45;5.67;;;5.13;;
3571;SDS011;7958;53.024;12.970;2023-11-21T04:57:14;5.87;;;5.27;;
3571;SDS011;7958;53.024;12.970;2023-11-21T04:59:43;6.57;;;5.90;;
3571;SDS011;7958;53.024;12.970;2023-11-21T05:02:09;7.50;;;5.60;;
3571;SDS011;7958;53.024;12.970;2023-11-21T05:04:36;7.43;;;5.63;;
3571;SDS011;7958;53.024;12.970;2023-11-21T05:07:02;7.40;;;5.80;;
3571;SDS011;7958;53.024;12.970;2023-11-21T05:09:29;8.37;;;5.90;;
3571;SDS011;7958;53.024;12.970;2023-11-21T05:11:57;7.80;;;5.93;;
3571;SDS011;7958;53.024;12.970;2023-11-21T05:14:25;7.17;;;5.60;;
3571;SDS011;7958;53.024;12.970;2023-11-21T05:16:51;7.80;;;5.80;;
3571;SDS011;7958;53.024;12.970;2023-11-21T05:19:18;8.53;;;5.70;;
3571;SDS011;7958;53.024;12.970;2023-11-21T05:21:44;8.97;;;5.50;;
3571;SDS011;7958;53.024;12.970;2023-11-21T05:24:11;6.73;;;5.50;;
3571;SDS011;7958;53.024;12.970;2023-11-21T05:26:37;7.50;;;5.53;;
3571;SDS011;7958;53.024;12.970;2023-11-21T05:29:04;8.93;;;6.00;;
3571;SDS011;7958;53.024;12.970;2023-11-21T05:31:32;8.83;;;6.33;;
3571;SDS011;7958;53.024;12.970;2023-11-21T05:33:58;6.83;;;5.47;;
3571;SDS011;7958;53.024;12.970;2023-11-21T05:36:24;10.23;;;6.40;;
3571;SDS011;7958;53.024;12.970;2023-11-21T05:38:51;8.30;;;5.20;;
3571;SDS011;7958;53.024;12.970;2023-11-21T05:41:17;8.20;;;5.30;;
3571;SDS011;7958;53.024;12.970;2023-11-21T05:43:44;7.00;;;5.53;;
3571;SDS011;7958;53.024;12.970;2023-11-21T05:46:10;11.17;;;5.13;;
3571;SDS011;7958;53.024;12.970;2023-11-21T05:48:37;6.40;;;5.33;;
3571;SDS011;7958;53.024;12.970;2023-11-21T05:51:04;7.53;;;5.90;;
3571;SDS011;7958;53.024;12.970;2023-11-21T05:53:31;7.87;;;5.80;;
3571;SDS011;7958;53.024;12.970;2023-11-21T05:55:57;7.20;;;5.43;;
3571;SDS011;7958;53.024;12.970;2023-11-21T05:58:23;6.70;;;5.23;;
3571;SDS011;7958;53.024;12.970;2023-11-21T06:00:50;5.80;;;4.33;;
3571;SDS011;7958;53.024;12.970;2023-11-21T06:03:16;6.53;;;4.70;;
3571;SDS011;7958;53.024;12.970;2023-11-21T06:05:44;6.10;;;4.73;;
3571;SDS011;7958;53.024;12.970;2023-11-21T06:08:10;5.70;;;4.50;;
3571;SDS011;7958;53.024;12.970;2023-11-21T06:10:37;6.83;;;5.20;;
3571;SDS011;7958;53.024;12.970;2023-11-21T06:13:04;7.43;;;4.83;;
3571;SDS011;7958;53.024;12.970;2023-11-21T06:15:32;7.00;;;5.10;;
3571;SDS011;7958;53.024;12.970;2023-11-21T06:17:59;5.43;;;4.37;;
3571;SDS011;7958;53.024;12.970;2023-11-21T06:20:25;5.83;;;4.93;;
3571;SDS011;7958;53.024;12.970;2023-11-21T06:22:53;6.20;;;5.57;;
3571;SDS011;7958;53.024;12.970;2023-11-21T06:25:20;9.33;;;5.27;;
3571;SDS011;7958;53.024;12.970;2023-11-21T06:27:46;6.10;;;5.30;;
3571;SDS011;7958;53.024;12.970;2023-11-21T06:30:14;5.80;;;4.63;;
3571;SDS011;7958;53.024;12.970;2023-11-21T06:32:40;6.30;;;5.10;;
3571;SDS011;7958;53.024;12.970;2023-11-21T06:35:10;7.47;;;5.73;;
3571;SDS011;7958;53.024;12.970;2023-11-21T06:37:38;7.37;;;5.50;;
3571;SDS011;7958;53.024;12.970;2023-11-21T06:40:08;5.90;;;4.90;;
3571;SDS011;7958;53.024;12.970;2023-11-21T06:42:35;8.00;;;5.37;;
3571;SDS011;7958;53.024;12.970;2023-11-21T06:45:02;5.73;;;4.93;;
3571;SDS011;7958;53.024;12.970;2023-11-21T06:47:29;5.53;;;4.57;;
3571;SDS011;7958;53.024;12.970;2023-11-21T06:49:55;9.03;;;5.97;;
3571;SDS011;7958;53.024;12.970;2023-11-21T06:52:22;7.23;;;4.97;;
3571;SDS011;7958;53.024;12.970;2023-11-21T06:54:48;5.50;;;4.83;;
3571;SDS011;7958;53.024;12.970;2023-11-21T06:57:17;9.00;;;6.03;;
3571;SDS011;7958;53.024;12.970;2023-11-21T06:59:43;7.90;;;6.33;;
3571;SDS011;7958;53.024;12.970;2023-11-21T07:02:09;8.40;;;6.17;;
3571;SDS011;7958;53.024;12.970;2023-11-21T07:04:36;8.30;;;6.60;;
3571;SDS011;7958;53.024;12.970;2023-11-21T07:07:02;7.57;;;5.47;;
3571;SDS011;7958;53.024;12.970;2023-11-21T07:09:29;7.80;;;5.33;;
3571;SDS011;7958;53.024;12.970;2023-11-21T07:11:56;8.60;;;5.77;;
3571;SDS011;7958;53.024;12.970;2023-11-21T07:14:24;7.87;;;5.90;;
3571;SDS011;7958;53.024;12.970;2023-11-21T07:16:49;5.90;;;5.10;;
3571;SDS011;7958;53.024;12.970;2023-11-21T07:19:17;7.60;;;5.70;;
3571;SDS011;7958;53.024;12.970;2023-11-21T07:21:44;7.40;;;6.20;;
3571;SDS011;7958;53.024;12.970;2023-11-21T07:24:11;6.77;;;5.63;;
3571;SDS011;7958;53.024;12.970;2023-11-21T07:26:37;6.70;;;5.93;;
3571;SDS011;7958;53.024;12.970;2023-11-21T07:29:04;9.30;;;5.83;;
3571;SDS011;7958;53.024;12.970;2023-11-21T07:31:32;6.30;;;5.17;;
3571;SDS011;7958;53.024;12.970;2023-11-21T07:34:00;6.93;;;5.10;;
3571;SDS011;7958;53.024;12.970;2023-11-21T07:36:26;7.40;;;5.47;;
3571;SDS011;7958;53.024;12.970;2023-11-21T07:38:53;5.57;;;4.60;;
3571;SDS011;7958;53.024;12.970;2023-11-21T07:41:20;7.53;;;5.67;;
3571;SDS011;7958;53.024;12.970;2023-11-21T07:43:47;6.90;;;5.63;;
3571;SDS011;7958;53.024;12.970;2023-11-21T07:46:13;6.87;;;5.50;;
3571;SDS011;7958;53.024;12.970;2023-11-21T07:48:41;12.70;;;8.27;;
3571;SDS011;7958;53.024;12.970;2023-11-21T07:51:08;9.60;;;6.77;;
3571;SDS011;7958;53.024;12.970;2023-11-21T07:53:36;9.70;;;5.40;;
3571;SDS011;7958;53.024;12.970;2023-11-21T07:56:02;6.27;;;5.20;;
3571;SDS011;7958;53.024;12.970;2023-11-21T07:58:30;7.23;;;5.10;;
3571;SDS011;7958;53.024;12.970;2023-11-21T08:00:58;7.37;;;5.33;;
3571;SDS011;7958;53.024;12.970;2023-11-21T08:03:24;7.47;;;5.37;;
3571;SDS011;7958;53.024;12.970;2023-11-21T08:05:53;7.33;;;5.30;;
3571;SDS011;7958;53.024;12.970;2023-11-21T08:08:19;6.70;;;5.70;;
3571;SDS011;7958;53.024;12.970;2023-11-21T08:10:46;8.70;;;6.67;;
3571;SDS011;7958;53.024;12.970;2023-11-21T08:13:21;6.93;;;5.40;;
3571;SDS011;7958;53.024;12.970;2023-11-21T08:15:47;12.67;;;6.67;;
3571;SDS011;7958;53.024;12.970;2023-11-21T08:18:13;8.00;;;5.10;;
3571;SDS011;7958;53.024;12.970;2023-11-21T08:20:41;7.00;;;5.43;;
3571;SDS011;7958;53.024;12.970;2023-11-21T08:23:09;6.40;;;5.00;;
3571;SDS011;7958;53.024;12.970;2023-11-21T08:25:36;7.50;;;5.47;;
3571;SDS011;7958;53.024;12.970;2023-11-21T08:28:02;6.50;;;5.33;;
3571;SDS011;7958;53.024;12.970;2023-11-21T08:30:29;6.50;;;5.03;;
3571;SDS011;7958;53.024;12.970;2023-11-21T08:32:55;9.53;;;5.67;;
3571;SDS011;7958;53.024;12.970;2023-11-21T08:35:23;9.23;;;5.93;;
3571;SDS011;7958;53.024;12.970;2023-11-21T08:37:50;6.47;;;5.50;;
3571;SDS011;7958;53.024;12.970;2023-11-21T08:40:19;7.10;;;5.60;;
3571;SDS011;7958;53.024;12.970;2023-11-21T08:42:46;7.20;;;5.40;;
3571;SDS011;7958;53.024;12.970;2023-11-21T08:45:13;5.67;;;5.10;;
3571;SDS011;7958;53.024;12.970;2023-11-21T08:47:39;5.87;;;4.93;;
3571;SDS011;7958;53.024;12.970;2023-11-21T08:50:05;6.60;;;5.20;;
3571;SDS011;7958;53.024;12.970;2023-11-21T08:52:33;6.50;;;5.33;;
3571;SDS011;7958;53.024;12.970;2023-11-21T08:55:00;7.67;;;5.53;;
3571;SDS011;7958;53.024;12.970;2023-11-21T08:57:34;7.87;;;5.70;;
3571;SDS011;7958;53.024;12.970;2023-11-21T09:00:00;6.17;;;5.37;;
3571;SDS011;7958;53.024;12.970;2023-11-21T09:02:27;6.90;;;5.40;;
3571;SDS011;7958;53.024;12.970;2023-11-21T09:04:53;6.17;;;5.10;;
3571;SDS011;7958;53.024;12.970;2023-11-21T09:07:20;5.63;;;4.80;;
3571;SDS011;7958;53.024;12.970;2023-11-21T09:09:46;6.27;;;5.50;;
3571;SDS011;7958;53.024;12.970;2023-11-21T09:12:13;5.43;;;4.93;;
3571;SDS011;7958;53.024;12.970;2023-11-21T09:14:41;9.07;;;5.57;;
3571;SDS011;7958;53.024;12.970;2023-11-21T09:17:09;6.27;;;5.63;;
3571;SDS011;7958;53.024;12.970;2023-11-21T09:19:36;5.90;;;5.10;;
3571;SDS011;7958;53.024;12.970;2023-11-21T09:22:03;7.17;;;5.60;;
3571;SDS011;7958;53.024;12.970;2023-11-21T09:24:30;6.20;;;5.40;;
3571;SDS011;7958;53.024;12.970;2023-11-21T09:26:56;7.33;;;5.90;;
3571;SDS011;7958;53.024;12.970;2023-11-21T09:29:22;5.97;;;5.27;;
3571;SDS011;7958;53.024;12.970;2023-11-21T09:31:50;5.50;;;4.80;;
3571;SDS011;7958;53.024;12.970;2023-11-21T09:34:17;7.10;;;4.93;;
3571;SDS011;7958;53.024;12.970;2023-11-21T09:36:44;4.60;;;4.20;;
3571;SDS011;7958;53.024;12.970;2023-11-21T09:39:11;6.57;;;4.80;;
3571;SDS011;7958;53.024;12.970;2023-11-21T09:41:40;5.47;;;4.50;;
3571;SDS011;7958;53.024;12.970;2023-11-21T09:44:11;5.90;;;4.90;;
3571;SDS011;7958;53.024;12.970;2023-11-21T09:46:39;6.50;;;4.50;;
3571;SDS011;7958;53.024;12.970;2023-11-21T09:49:07;5.23;;;4.33;;
3571;SDS011;7958;53.024;12.970;2023-11-21T09:51:37;5.10;;;4.60;;
3571;SDS011;7958;53.024;12.970;2023-11-21T09:54:05;4.60;;;4.17;;
3571;SDS011;7958;53.024;12.970;2023-11-21T09:56:34;4.77;;;4.20;;
3571;SDS011;7958;53.024;12.970;2023-11-21T09:59:01;8.53;;;3.57;;
3571;SDS011;7958;53.024;12.970;2023-11-21T10:01:32;5.40;;;4.00;;
3571;SDS011;7958;53.024;12.970;2023-11-21T10:03:58;4.70;;;3.80;;
3571;SDS011;7958;53.024;12.970;2023-11-21T10:06:26;4.60;;;3.90;;
3571;SDS011;7958;53.024;12.970;2023-11-21T10:08:53;4.30;;;3.80;;
3571;SDS011;7958;53.024;12.970;2023-11-21T10:11:22;5.57;;;4.03;;
3571;SDS011;7958;53.024;12.970;2023-11-21T10:13:51;5.73;;;3.70;;
3571;SDS011;7958;53.024;12.970;2023-11-21T10:16:19;5.37;;;4.10;;
3571;SDS011;7958;53.024;12.970;2023-11-21T10:18:46;5.40;;;4.67;;
3571;SDS011;7958;53.024;12.970;2023-11-21T10:21:14;4.30;;;3.77;;
3571;SDS011;7958;53.024;12.970;2023-11-21T10:23:43;5.37;;;4.23;;
3571;SDS011;7958;53.024;12.970;2023-11-21T10:26:10;4.07;;;3.60;;
3571;SDS011;7958;53.024;12.970;2023-11-21T10:28:41;3.90;;;3.60;;
3571;SDS011;7958;53.024;12.970;2023-11-21T10:31:07;4.40;;;3.57;;
3571;SDS011;7958;53.024;12.970;2023-11-21T10:33:34;4.10;;;3.70;;
3571;SDS011;7958;53.024;12.970;2023-11-21T10:36:00;4.47;;;3.67;;
3571;SDS011;7958;53.024;12.970;2023-11-21T10:38:27;3.67;;;3.37;;
3571;SDS011;7958;53.024;12.970;2023-11-21T10:40:56;3.57;;;3.27;;
3571;SDS011;7958;53.024;12.970;2023-11-21T10:43:25;3.60;;;3.10;;
3571;SDS011;7958;53.024;12.970;2023-11-21T10:45:51;4.00;;;3.60;;
3571;SDS011;7958;53.024;12.970;2023-11-21T10:48:17;3.90;;;3.20;;
3571;SDS011;7958;53.024;12.970;2023-11-21T10:50:45;4.53;;;3.63;;
3571;SDS011;7958;53.024;12.970;2023-11-21T10:53:12;6.53;;;3.50;;
3571;SDS011;7958;53.024;12.970;2023-11-21T10:55:38;5.07;;;3.43;;
3571;SDS011;7958;53.024;12.970;2023-11-21T10:58:06;4.20;;;3.80;;
3571;SDS011;7958;53.024;12.970;2023-11-21T11:00:35;4.20;;;3.80;;
3571;SDS011;7958;53.024;12.970;2023-11-21T11:03:02;3.90;;;3.53;;
3571;SDS011;7958;53.024;12.970;2023-11-21T11:05:29;6.57;;;4.50;;
3571;SDS011;7958;53.024;12.970;2023-11-21T11:07:58;5.00;;;3.33;;
3571;SDS011;7958;53.024;12.970;2023-11-21T11:10:28;4.30;;;3.90;;
3571;SDS011;7958;53.024;12.970;2023-11-21T11:12:55;3.80;;;3.50;;
3571;SDS011;7958;53.024;12.970;2023-11-21T11:15:24;3.73;;;3.40;;
3571;SDS011;7958;53.024;12.970;2023-11-21T11:17:52;5.50;;;3.90;;
3571;SDS011;7958;53.024;12.970;2023-11-21T11:20:21;3.90;;;3.50;;
3571;SDS011;7958;53.024;12.970;2023-11-21T11:22:50;5.50;;;4.37;;
3571;SDS011;7958;53.024;12.970;2023-11-21T11:25:32;4.00;;;3.43;;
3571;SDS011;7958;53.024;12.970;2023-11-21T11:28:04;4.53;;;3.33;;
3571;SDS011;7958;53.024;12.970;2023-11-21T11:30:39;3.50;;;3.20;;
3571;SDS011;7958;53.024;12.970;2023-11-21T11:33:12;3.37;;;3.10;;
3571;SDS011;7958;53.024;12.970;2023-11-21T11:35:43;3.80;;;3.33;;
3571;SDS011;7958;53.024;12.970;2023-11-21T11:38:15;4.60;;;3.00;;
3571;SDS011;7958;53.024;12.970;2023-11-21T11:40:41;3.10;;;2.80;;
3571;SDS011;7958;53.024;12.970;2023-11-21T11:43:11;6.43;;;3.10;;
3571;SDS011;7958;53.024;12.970;2023-11-21T11:45:39;3.77;;;3.47;;
3571;SDS011;7958;53.024;12.970;2023-11-21T11:48:07;2.67;;;2.47;;
3571;SDS011;7958;53.024;12.970;2023-11-21T11:50:34;3.40;;;3.10;;
3571;SDS011;7958;53.024;12.970;2023-11-21T11:53:11;3.20;;;2.90;;
3571;SDS011;7958;53.024;12.970;2023-11-21T11:55:38;4.57;;;2.50;;
3571;SDS011;7958;53.024;12.970;2023-11-21T11:58:05;3.03;;;2.77;;
3571;SDS011;7958;53.024;12.970;2023-11-21T12:00:33;3.03;;;2.73;;
3571;SDS011;7958;53.024;12.970;2023-11-21T12:03:05;2.70;;;2.50;;
3571;SDS011;7958;53.024;12.970;2023-11-21T12:05:34;2.53;;;2.33;;
3571;SDS011;7958;53.024;12.970;2023-11-21T12:08:04;3.23;;;2.70;;
3571;SDS011;7958;53.024;12.970;2023-11-21T12:10:33;3.00;;;2.50;;
3571;SDS011;7958;53.024;12.970;2023-11-21T12:13:01;3.00;;;2.70;;
3571;SDS011;7958;53.024;12.970;2023-11-21T12:15:28;2.43;;;2.17;;
3571;SDS011;7958;53.024;12.970;2023-11-21T12:17:56;2.80;;;2.60;;
3571;SDS011;7958;53.024;12.970;2023-11-21T12:20:26;3.67;;;2.63;;
3571;SDS011;7958;53.024;12.970;2023-11-21T12:22:53;3.13;;;2.80;;
3571;SDS011;7958;53.024;12.970;2023-11-21T12:25:21;2.23;;;2.03;;
3571;SDS011;7958;53.024;12.970;2023-11-21T12:27:48;3.20;;;2.50;;
3571;SDS011;7958;53.024;12.970;2023-11-21T12:30:16;2.80;;;2.50;;
3571;SDS011;7958;53.024;12.970;2023-11-21T12:32:44;2.50;;;2.30;;
3571;SDS011;7958;53.024;12.970;2023-11-21T12:35:12;2.60;;;2.40;;
3571;SDS011;7958;53.024;12.970;2023-11-21T12:37:40;2.60;;;2.40;;
3571;SDS011;7958;53.024;12.970;2023-11-21T12:40:08;2.40;;;2.20;;
3571;SDS011;7958;53.024;12.970;2023-11-21T12:42:36;2.00;;;1.90;;
3571;SDS011;7958;53.024;12.970;2023-11-21T12:45:10;2.87;;;2.60;;
3571;SDS011;7958;53.024;12.970;2023-11-21T12:47:45;2.37;;;2.17;;
3571;SDS011;7958;53.024;12.970;2023-11-21T12:50:12;2.27;;;2.00;;
3571;SDS011;7958;53.024;12.970;2023-11-21T12:52:41;2.20;;;1.93;;
3571;SDS011;7958;53.024;12.970;2023-11-21T12:55:13;2.40;;;2.20;;
3571;SDS011;7958;53.024;12.970;2023-11-21T12:57:41;2.43;;;2.23;;
3571;SDS011;7958;53.024;12.970;2023-11-21T13:00:09;2.73;;;2.50;;
3571;SDS011;7958;53.024;12.970;2023-11-21T13:02:49;3.37;;;2.50;;
3571;SDS011;7958;53.024;12.970;2023-11-21T13:05:23;2.10;;;2.00;;
3571;SDS011;7958;53.024;12.970;2023-11-21T13:07:51;2.90;;;2.43;;
3571;SDS011;7958;53.024;12.970;2023-11-21T13:10:19;2.27;;;2.07;;
3571;SDS011;7958;53.024;12.970;2023-11-21T13:12:50;2.33;;;2.10;;
3571;SDS011;7958;53.024;12.970;2023-11-21T13:15:17;2.17;;;1.97;;
3571;SDS011;7958;53.024;12.970;2023-11-21T13:17:44;2.20;;;2.00;;
3571;SDS011;7958;53.024;12.970;2023-11-21T13:20:11;5.43;;;1.83;;
3571;SDS011;7958;53.024;12.970;2023-11-21T13:22:44;2.30;;;2.10;;
3571;SDS011;7958;53.024;12.970;2023-11-21T13:25:13;1.97;;;1.87;;
3571;SDS011;7958;53.024;12.970;2023-11-21T13:27:40;1.73;;;1.63;;
3571;SDS011;7958;53.024;12.970;2023-11-21T13:30:08;2.10;;;1.90;;
3571;SDS011;7958;53.024;12.970;2023-11-21T13:32:35;4.10;;;2.10;;
3571;SDS011;7958;53.024;12.970;2023-11-21T13:35:02;2.20;;;2.00;;
3571;SDS011;7958;53.024;12.970;2023-11-21T13:37:33;2.10;;;1.93;;
3571;SDS011;7958;53.024;12.970;2023-11-21T13:39:59;2.30;;;2.10;;
3571;SDS011;7958;53.024;12.970;2023-11-21T13:42:30;8.83;;;5.67;;
3571;SDS011;7958;53.024;12.970;2023-11-21T13:44:57;4.37;;;3.40;;
3571;SDS011;7958;53.024;12.970;2023-11-21T13:47:23;17.67;;;10.80;;
3571;SDS011;7958;53.024;12.970;2023-11-21T13:49:54;10.17;;;7.70;;
3571;SDS011;7958;53.024;12.970;2023-11-21T13:52:21;3.70;;;3.30;;
3571;SDS011;7958;53.024;12.970;2023-11-21T13:54:51;2.60;;;2.40;;
3571;SDS011;7958;53.024;12.970;2023-11-21T13:57:18;3.60;;;2.60;;
3571;SDS011;7958;53.024;12.970;2023-11-21T13:59:46;3.10;;;2.80;;
3571;SDS011;7958;53.024;12.970;2023-11-21T14:02:14;3.93;;;2.90;;
3571;SDS011;7958;53.024;12.970;2023-11-21T14:04:43;3.13;;;2.10;;
3571;SDS011;7958;53.024;12.970;2023-11-21T14:07:19;2.60;;;2.40;;
3571;SDS011;7958;53.024;12.970;2023-11-21T14:09:56;2.10;;;1.90;;
3571;SDS011;7958;53.024;12.970;2023-11-21T14:12:23;2.47;;;2.27;;
3571;SDS011;7958;53.024;12.970;2023-11-21T14:14:51;2.00;;;1.80;;
3571;SDS011;7958;53.024;12.970;2023-11-21T14:17:17;2.50;;;2.20;;
3571;SDS011;7958;53.024;12.970;2023-11-21T14:19:47;2.27;;;2.00;;
3571;SDS011;7958;53.024;12.970;2023-11-21T14:22:14;3.30;;;2.20;;
3571;SDS011;7958;53.024;12.970;2023-11-21T14:24:42;2.00;;;1.90;;
3571;SDS011;7958;53.024;12.970;2023-11-21T14:27:11;2.03;;;1.93;;
3571;SDS011;7958;53.024;12.970;2023-11-21T14:29:40;2.73;;;2.50;;
3571;SDS011;7958;53.024;12.970;2023-11-21T14:32:10;2.33;;;2.10;;
3571;SDS011;7958;53.024;12.970;2023-11-21T14:34:38;1.80;;;1.70;;
3571;SDS011;7958;53.024;12.970;2023-11-21T14:37:05;2.47;;;2.27;;
3571;SDS011;7958;53.024;12.970;2023-11-21T14:39:32;3.97;;;2.40;;
3571;SDS011;7958;53.024;12.970;2023-11-21T14:42:03;2.40;;;2.20;;
3571;SDS011;7958;53.024;12.970;2023-11-21T14:44:32;4.73;;;2.03;;
3571;SDS011;7958;53.024;12.970;2023-11-21T14:47:03;3.00;;;2.33;;
3571;SDS011;7958;53.024;12.970;2023-11-21T14:49:33;2.10;;;1.97;;
3571;SDS011;7958;53.024;12.970;2023-11-21T14:52:15;3.90;;;2.10;;
3571;SDS011;7958;53.024;12.970;2023-11-21T14:54:56;2.73;;;2.30;;
3571;SDS011;7958;53.024;12.970;2023-11-21T14:57:43;2.30;;;2.10;;
3571;SDS011;7958;53.024;12.970;2023-11-21T15:00:14;2.60;;;2.33;;
3571;SDS011;7958;53.024;12.970;2023-11-21T15:03:02;4.43;;;2.37;;